sensor_id;sensor_type;location;lat;lon;timestamp;temperature;humidity
16477;DHT22;8349;50.928;6.376;2022-10-16T03:02:01;12.70;99.90
16477;DHT22;8349;50.928;6.376;2022-10-16T03:04:28;12.60;99.90
16477;DHT22;8349;50.928;6.376;2022-10-16T03:06:54;12.70;99.90
16477;DHT22;8349;50.928;6.376;2022-10-16T03:09:21;12.70;99.90
16477;DHT22;8349;50.928;6.376;2022-10-16T03:11:48;12.70;99.90
16477;DHT22;8349;50.928;6.376;2022-10-16T03:14:15;12.60;99.90
16477;DHT22;8349;50.928;6.376;2022-10-16T03:16:42;12.60;99.90
16477;DHT22;8349;50.928;6.376;2022-10-16T03:19:10;12.60;99.90
16477;DHT22;8349;50.928;6.376;2022-10-16T03:21:37;12.60;99.90
16477;DHT22;8349;50.928;6.376;2022-10-16T03:24:04;12.60;99.90
16477;DHT22;8349;50.928;6.376;2022-10-16T03:26:30;12.60;99.90
16477;DHT22;8349;50.928;6.376;2022-10-16T03:28:57;12.70;99.90
16477;DHT22;8349;50.928;6.376;2022-10-16T03:31:24;12.70;99.90
16477;DHT22;8349;50.928;6.376;2022-10-16T03:33:50;12.70;99.90
16477;DHT22;8349;50.928;6.376;2022-10-16T03:36:18;12.70;99.90
16477;DHT22;8349;50.928;6.376;2022-10-16T03:38:45;12.70;99.90
16477;DHT22;8349;50.928;6.376;2022-10-16T03:41:11;12.80;99.90
16477;DHT22;8349;50.928;6.376;2022-10-16T03:43:38;12.70;99.90
16477;DHT22;8349;50.928;6.376;2022-10-16T03:46:04;12.80;99.90
16477;DHT22;8349;50.928;6.376;2022-10-16T03:48:31;12.90;99.90
16477;DHT22;8349;50.928;6.376;2022-10-16T03:50:58;12.90;99.90
16477;DHT22;8349;50.928;6.376;2022-10-16T03:53:26;13.00;99.90
16477;DHT22;8349;50.928;6.376;2022-10-16T03:55:53;13.10;99.90
16477;DHT22;8349;50.928;6.376;2022-10-16T03:58:19;13.10;99.90
16477;DHT22;8349;50.928;6.376;2022-10-16T04:00:46;13.10;99.90
16477;DHT22;8349;50.928;6.376;2022-10-16T04:03:13;13.00;99.90
16477;DHT22;8349;50.928;6.376;2022-10-16T04:05:40;13.00;99.90
16477;DHT22;8349;50.928;6.376;2022-10-16T04:08:07;13.00;99.90
16477;DHT22;8349;50.928;6.376;2022-10-16T04:10:35;12.90;99.90
16477;DHT22;8349;50.928;6.376;2022-10-16T04:13:02;12.90;99.90
16477;DHT22;8349;50.928;6.376;2022-10-16T04:15:29;12.90;99.90
16477;DHT22;8349;50.928;6.376;2022-10-16T04:17:56;12.90;99.90
16477;DHT22;8349;50.928;6.376;2022-10-16T04:20:22;12.80;99.90
16477;DHT22;8349;50.928;6.376;2022-10-16T04:22:49;12.80;99.90
16477;DHT22;8349;50.928;6.376;2022-10-16T04:25:16;12.80;99.90
16477;DHT22;8349;50.928;6.376;2022-10-16T04:27:44;12.70;99.90
16477;DHT22;8349;50.928;6.376;2022-10-16T04:30:11;12.70;99.90
16477;DHT22;8349;50.928;6.376;2022-10-16T04:32:38;12.60;99.90
16477;DHT22;8349;50.928;6.376;2022-10-16T04:35:05;12.50;99.90
16477;DHT22;8349;50.928;6.376;2022-10-16T04:37:31;12.50;99.90
16477;DHT22;8349;50.928;6.376;2022-10-16T04:39:58;12.50;99.90
16477;DHT22;8349;50.928;6.376;2022-10-16T04:42:25;12.50;99.90
16477;DHT22;8349;50.928;6.376;2022-10-16T04:44:53;12.40;99.90
16477;DHT22;8349;50.928;6.376;2022-10-16T04:47:20;12.50;99.90
16477;DHT22;8349;50.928;6.376;2022-10-16T04:49:47;12.50;99.90
16477;DHT22;8349;50.928;6.376;2022-10-16T04:52:13;12.60;99.90
16477;DHT22;8349;50.928;6.376;2022-10-16T04:54:40;12.60;99.90
16477;DHT22;8349;50.928;6.376;2022-10-16T04:57:07;12.70;99.90
16477;DHT22;8349;50.928;6.376;2022-10-16T04:59:34;12.70;99.90
16477;DHT22;8349;50.928;6.376;2022-10-16T05:02:02;12.70;99.90
16477;DHT22;8349;50.928;6.376;2022-10-16T05:04:29;12.70;99.90
16477;DHT22;8349;50.928;6.376;2022-10-16T05:06:56;12.60;99.90
16477;DHT22;8349;50.928;6.376;2022-10-16T05:09:23;12.60;99.90
16477;DHT22;8349;50.928;6.376;2022-10-16T05:11:50;12.60;99.90
16477;DHT22;8349;50.928;6.376;2022-10-16T05:14:16;12.70;99.90
16477;DHT22;8349;50.928;6.376;2022-10-16T05:16:43;12.60;99.90
16477;DHT22;8349;50.928;6.376;2022-10-16T05:19:12;12.70;99.90
16477;DHT22;8349;50.928;6.376;2022-10-16T05:21:39;12.60;99.90
16477;DHT22;8349;50.928;6.376;2022-10-16T05:24:05;12.60;99.90
16477;DHT22;8349;50.928;6.376;2022-10-16T05:26:32;12.60;99.90
16477;DHT22;8349;50.928;6.376;2022-10-16T05:28:59;12.50;99.90
16477;DHT22;8349;50.928;6.376;2022-10-16T05:31:26;12.50;99.90
16477;DHT22;8349;50.928;6.376;2022-10-16T05:33:57;12.50;99.90
16477;DHT22;8349;50.928;6.376;2022-10-16T05:36:25;12.40;99.90
16477;DHT22;8349;50.928;6.376;2022-10-16T05:38:52;12.40;99.90
16477;DHT22;8349;50.928;6.376;2022-10-16T05:41:19;12.50;99.90
16477;DHT22;8349;50.928;6.376;2022-10-16T05:43:47;12.40;99.90
16477;DHT22;8349;50.928;6.376;2022-10-16T05:46:14;12.40;99.90
16477;DHT22;8349;50.928;6.376;2022-10-16T05:48:40;12.40;99.90
16477;DHT22;8349;50.928;6.376;2022-10-16T05:51:11;12.40;99.90
16477;DHT22;8349;50.928;6.376;2022-10-16T05:53:39;12.30;99.90
16477;DHT22;8349;50.928;6.376;2022-10-16T05:56:07;12.30;99.90
16477;DHT22;8349;50.928;6.376;2022-10-16T05:58:36;12.30;99.90
16477;DHT22;8349;50.928;6.376;2022-10-16T06:01:03;12.30;99.90
16477;DHT22;8349;50.928;6.376;2022-10-16T06:03:30;12.30;99.90
16477;DHT22;8349;50.928;6.376;2022-10-16T06:05:57;12.30;99.90
16477;DHT22;8349;50.928;6.376;2022-10-16T06:08:24;12.40;99.90
16477;DHT22;8349;50.928;6.376;2022-10-16T06:11:01;12.40;99.90
16477;DHT22;8349;50.928;6.376;2022-10-16T06:13:28;12.40;99.90
16477;DHT22;8349;50.928;6.376;2022-10-16T06:15:56;12.40;99.90
16477;DHT22;8349;50.928;6.376;2022-10-16T06:18:23;12.40;99.90
16477;DHT22;8349;50.928;6.376;2022-10-16T06:20:50;12.40;99.90
16477;DHT22;8349;50.928;6.376;2022-10-16T06:23:17;12.40;99.90
16477;DHT22;8349;50.928;6.376;2022-10-16T06:25:44;12.40;99.90
16477;DHT22;8349;50.928;6.376;2022-10-16T06:28:12;12.50;99.90
16477;DHT22;8349;50.928;6.376;2022-10-16T06:30:39;12.50;99.90
16477;DHT22;8349;50.928;6.376;2022-10-16T06:33:06;12.50;99.90
16477;DHT22;8349;50.928;6.376;2022-10-16T06:35:33;12.50;99.90
16477;DHT22;8349;50.928;6.376;2022-10-16T06:37:59;12.60;99.90
16477;DHT22;8349;50.928;6.376;2022-10-16T06:40:26;12.70;99.90
16477;DHT22;8349;50.928;6.376;2022-10-16T06:42:54;12.80;99.90
16477;DHT22;8349;50.928;6.376;2022-10-16T06:45:22;12.90;99.90
16477;DHT22;8349;50.928;6.376;2022-10-16T06:47:49;13.00;99.90
16477;DHT22;8349;50.928;6.376;2022-10-16T06:50:16;13.10;99.90
16477;DHT22;8349;50.928;6.376;2022-10-16T06:52:43;13.20;99.90
16477;DHT22;8349;50.928;6.376;2022-10-16T06:55:09;13.30;99.90
16477;DHT22;8349;50.928;6.376;2022-10-16T06:57:36;13.30;99.90
16477;DHT22;8349;50.928;6.376;2022-10-16T07:00:03;13.40;99.90
16477;DHT22;8349;50.928;6.376;2022-10-16T07:02:31;13.40;99.90
16477;DHT22;8349;50.928;6.376;2022-10-16T07:04:58;13.40;99.90
16477;DHT22;8349;50.928;6.376;2022-10-16T07:07:25;13.50;99.90
16477;DHT22;8349;50.928;6.376;2022-10-16T07:09:52;13.50;99.90
16477;DHT22;8349;50.928;6.376;2022-10-16T07:12:19;13.50;99.90
16477;DHT22;8349;50.928;6.376;2022-10-16T07:14:45;13.50;99.90
16477;DHT22;8349;50.928;6.376;2022-10-16T07:17:12;13.40;99.90
16477;DHT22;8349;50.928;6.376;2022-10-16T07:19:40;13.40;99.90
16477;DHT22;8349;50.928;6.376;2022-10-16T07:22:07;13.40;99.90
16477;DHT22;8349;50.928;6.376;2022-10-16T07:24:34;13.50;99.90
16477;DHT22;8349;50.928;6.376;2022-10-16T07:27:01;13.60;99.90
16477;DHT22;8349;50.928;6.376;2022-10-16T07:29:28;13.60;99.90
16477;DHT22;8349;50.928;6.376;2022-10-16T07:31:55;13.60;99.90
16477;DHT22;8349;50.928;6.376;2022-10-16T07:34:21;13.60;99.90
16477;DHT22;8349;50.928;6.376;2022-10-16T07:36:50;13.60;99.90
16477;DHT22;8349;50.928;6.376;2022-10-16T07:39:17;13.60;99.90
16477;DHT22;8349;50.928;6.376;2022-10-16T07:41:44;13.60;99.90
16477;DHT22;8349;50.928;6.376;2022-10-16T07:44:10;13.70;99.90
16477;DHT22;8349;50.928;6.376;2022-10-16T07:46:37;13.80;99.90
16477;DHT22;8349;50.928;6.376;2022-10-16T07:49:04;13.90;99.90
16477;DHT22;8349;50.928;6.376;2022-10-16T07:51:31;14.00;99.90
16477;DHT22;8349;50.928;6.376;2022-10-16T07:53:59;14.10;99.90
16477;DHT22;8349;50.928;6.376;2022-10-16T07:56:26;14.20;99.90
16477;DHT22;8349;50.928;6.376;2022-10-16T07:58:53;14.30;99.90
16477;DHT22;8349;50.928;6.376;2022-10-16T08:01:21;14.40;99.90
16477;DHT22;8349;50.928;6.376;2022-10-16T08:03:48;14.40;99.90
16477;DHT22;8349;50.928;6.376;2022-10-16T08:06:16;14.50;99.90
16477;DHT22;8349;50.928;6.376;2022-10-16T08:08:43;14.50;99.90
16477;DHT22;8349;50.928;6.376;2022-10-16T08:11:11;14.60;99.90
16477;DHT22;8349;50.928;6.376;2022-10-16T08:13:39;14.70;99.90
16477;DHT22;8349;50.928;6.376;2022-10-16T08:16:06;14.70;99.90
16477;DHT22;8349;50.928;6.376;2022-10-16T08:18:35;14.80;99.90
16477;DHT22;8349;50.928;6.376;2022-10-16T08:21:02;14.90;99.90
16477;DHT22;8349;50.928;6.376;2022-10-16T08:23:29;15.00;99.90
16477;DHT22;8349;50.928;6.376;2022-10-16T08:26:01;15.10;99.90
16477;DHT22;8349;50.928;6.376;2022-10-16T08:28:30;15.20;99.90
16477;DHT22;8349;50.928;6.376;2022-10-16T08:31:04;15.20;99.90
16477;DHT22;8349;50.928;6.376;2022-10-16T08:33:30;15.30;99.90
16477;DHT22;8349;50.928;6.376;2022-10-16T08:35:57;15.40;99.90
16477;DHT22;8349;50.928;6.376;2022-10-16T08:38:24;15.50;99.90
16477;DHT22;8349;50.928;6.376;2022-10-16T08:40:51;15.60;99.90
16477;DHT22;8349;50.928;6.376;2022-10-16T08:43:22;15.70;99.90
16477;DHT22;8349;50.928;6.376;2022-10-16T08:45:57;15.80;99.90
16477;DHT22;8349;50.928;6.376;2022-10-16T08:48:29;15.90;99.90
16477;DHT22;8349;50.928;6.376;2022-10-16T08:50:56;15.90;99.90
16477;DHT22;8349;50.928;6.376;2022-10-16T08:53:24;16.00;99.90
16477;DHT22;8349;50.928;6.376;2022-10-16T08:55:53;16.00;99.90
16477;DHT22;8349;50.928;6.376;2022-10-16T08:58:20;16.10;99.90
16477;DHT22;8349;50.928;6.376;2022-10-16T09:00:48;16.20;99.90
16477;DHT22;8349;50.928;6.376;2022-10-16T09:03:33;16.20;99.90
16477;DHT22;8349;50.928;6.376;2022-10-16T09:06:22;16.30;99.90
16477;DHT22;8349;50.928;6.376;2022-10-16T09:08:57;16.30;99.90
16477;DHT22;8349;50.928;6.376;2022-10-16T09:11:27;16.40;99.90
16477;DHT22;8349;50.928;6.376;2022-10-16T09:14:01;16.50;99.90
16477;DHT22;8349;50.928;6.376;2022-10-16T09:16:32;16.60;99.90
16477;DHT22;8349;50.928;6.376;2022-10-16T09:19:04;16.60;99.90
16477;DHT22;8349;50.928;6.376;2022-10-16T09:21:36;16.70;99.90
16477;DHT22;8349;50.928;6.376;2022-10-16T09:24:07;16.80;99.90
16477;DHT22;8349;50.928;6.376;2022-10-16T09:26:36;16.80;99.90
16477;DHT22;8349;50.928;6.376;2022-10-16T09:29:03;16.90;99.90
16477;DHT22;8349;50.928;6.376;2022-10-16T09:31:30;16.90;99.90
16477;DHT22;8349;50.928;6.376;2022-10-16T09:33:58;16.90;99.90
16477;DHT22;8349;50.928;6.376;2022-10-16T09:36:27;16.90;99.90
16477;DHT22;8349;50.928;6.376;2022-10-16T09:39:02;17.00;99.90
16477;DHT22;8349;50.928;6.376;2022-10-16T09:41:29;17.20;99.90
16477;DHT22;8349;50.928;6.376;2022-10-16T09:43:57;17.50;99.90
16477;DHT22;8349;50.928;6.376;2022-10-16T09:46:25;17.80;99.90
16477;DHT22;8349;50.928;6.376;2022-10-16T09:48:53;17.80;99.90
16477;DHT22;8349;50.928;6.376;2022-10-16T09:51:21;17.80;99.90
16477;DHT22;8349;50.928;6.376;2022-10-16T09:53:53;18.00;99.90
16477;DHT22;8349;50.928;6.376;2022-10-16T09:56:21;18.20;99.90
16477;DHT22;8349;50.928;6.376;2022-10-16T09:58:49;18.30;99.90
16477;DHT22;8349;50.928;6.376;2022-10-16T10:01:17;18.50;99.90
16477;DHT22;8349;50.928;6.376;2022-10-16T10:03:44;18.90;99.90
16477;DHT22;8349;50.928;6.376;2022-10-16T10:08:58;19.00;99.90
16477;DHT22;8349;50.928;6.376;2022-10-16T10:11:42;19.30;99.90
16477;DHT22;8349;50.928;6.376;2022-10-16T10:14:14;19.90;99.90
16477;DHT22;8349;50.928;6.376;2022-10-16T10:16:41;20.40;99.90
16477;DHT22;8349;50.928;6.376;2022-10-16T10:19:09;20.90;99.90
16477;DHT22;8349;50.928;6.376;2022-10-16T10:21:39;20.80;99.90
16477;DHT22;8349;50.928;6.376;2022-10-16T10:24:10;21.30;99.90
16477;DHT22;8349;50.928;6.376;2022-10-16T10:26:37;24.40;99.90
16477;DHT22;8349;50.928;6.376;2022-10-16T10:29:05;24.00;99.90
16477;DHT22;8349;50.928;6.376;2022-10-16T10:31:36;25.60;99.90
16477;DHT22;8349;50.928;6.376;2022-10-16T10:36:53;28.10;99.90
16477;DHT22;8349;50.928;6.376;2022-10-16T10:39:23;29.60;99.90
16477;DHT22;8349;50.928;6.376;2022-10-16T10:44:39;27.40;99.90
16477;DHT22;8349;50.928;6.376;2022-10-16T10:47:12;26.40;99.90
16477;DHT22;8349;50.928;6.376;2022-10-16T10:49:44;23.80;99.90
16477;DHT22;8349;50.928;6.376;2022-10-16T10:52:20;21.90;99.90
16477;DHT22;8349;50.928;6.376;2022-10-16T10:54:54;22.70;99.90
16477;DHT22;8349;50.928;6.376;2022-10-16T10:57:25;27.20;99.90
16477;DHT22;8349;50.928;6.376;2022-10-16T10:59:58;30.30;99.90
16477;DHT22;8349;50.928;6.376;2022-10-16T11:02:30;32.70;99.90
16477;DHT22;8349;50.928;6.376;2022-10-16T11:05:09;34.50;99.90
16477;DHT22;8349;50.928;6.376;2022-10-16T11:07:43;32.10;99.90
16477;DHT22;8349;50.928;6.376;2022-10-16T11:10:15;28.80;99.90
16477;DHT22;8349;50.928;6.376;2022-10-16T11:12:45;26.50;99.90
16477;DHT22;8349;50.928;6.376;2022-10-16T11:15:14;25.60;99.90
16477;DHT22;8349;50.928;6.376;2022-10-16T11:17:44;28.80;99.90
16477;DHT22;8349;50.928;6.376;2022-10-16T11:20:16;31.80;99.90
16477;DHT22;8349;50.928;6.376;2022-10-16T11:22:44;35.30;99.90
16477;DHT22;8349;50.928;6.376;2022-10-16T11:25:16;36.50;99.90
16477;DHT22;8349;50.928;6.376;2022-10-16T11:27:45;30.50;99.90
16477;DHT22;8349;50.928;6.376;2022-10-16T11:30:14;29.10;99.90
16477;DHT22;8349;50.928;6.376;2022-10-16T11:32:47;30.00;99.90
16477;DHT22;8349;50.928;6.376;2022-10-16T11:35:17;28.60;99.90
16477;DHT22;8349;50.928;6.376;2022-10-16T11:37:46;27.40;99.90
16477;DHT22;8349;50.928;6.376;2022-10-16T11:40:19;26.00;99.90
16477;DHT22;8349;50.928;6.376;2022-10-16T11:42:48;25.40;99.90
16477;DHT22;8349;50.928;6.376;2022-10-16T11:45:22;25.90;99.90
16477;DHT22;8349;50.928;6.376;2022-10-16T11:47:51;27.60;99.90
16477;DHT22;8349;50.928;6.376;2022-10-16T11:50:22;30.10;99.90
16477;DHT22;8349;50.928;6.376;2022-10-16T11:52:51;32.60;99.90
16477;DHT22;8349;50.928;6.376;2022-10-16T11:55:22;31.50;99.90
16477;DHT22;8349;50.928;6.376;2022-10-16T11:57:51;29.60;99.90
16477;DHT22;8349;50.928;6.376;2022-10-16T12:00:20;27.90;99.90
16477;DHT22;8349;50.928;6.376;2022-10-16T12:02:54;27.30;99.90
16477;DHT22;8349;50.928;6.376;2022-10-16T12:05:25;25.80;99.90
16477;DHT22;8349;50.928;6.376;2022-10-16T12:08:02;25.60;99.90
16477;DHT22;8349;50.928;6.376;2022-10-16T12:10:32;23.60;99.90
16477;DHT22;8349;50.928;6.376;2022-10-16T12:13:02;23.60;99.90
16477;DHT22;8349;50.928;6.376;2022-10-16T12:15:29;25.00;99.90
16477;DHT22;8349;50.928;6.376;2022-10-16T12:17:56;25.50;99.90
16477;DHT22;8349;50.928;6.376;2022-10-16T12:20:26;28.90;99.90
16477;DHT22;8349;50.928;6.376;2022-10-16T12:22:53;30.20;99.90
16477;DHT22;8349;50.928;6.376;2022-10-16T12:25:21;30.00;99.90
16477;DHT22;8349;50.928;6.376;2022-10-16T12:27:57;28.60;99.90
16477;DHT22;8349;50.928;6.376;2022-10-16T12:30:26;27.70;99.90
16477;DHT22;8349;50.928;6.376;2022-10-16T12:32:53;24.50;99.90
16477;DHT22;8349;50.928;6.376;2022-10-16T12:35:20;23.50;99.90
16477;DHT22;8349;50.928;6.376;2022-10-16T12:37:48;23.60;99.90
16477;DHT22;8349;50.928;6.376;2022-10-16T12:40:22;24.30;99.90
16477;DHT22;8349;50.928;6.376;2022-10-16T12:42:51;24.20;99.90
16477;DHT22;8349;50.928;6.376;2022-10-16T12:45:25;23.70;99.90
16477;DHT22;8349;50.928;6.376;2022-10-16T12:47:52;24.20;99.90
16477;DHT22;8349;50.928;6.376;2022-10-16T12:50:27;27.90;99.90
16477;DHT22;8349;50.928;6.376;2022-10-16T12:52:56;29.80;99.90
16477;DHT22;8349;50.928;6.376;2022-10-16T12:55:23;31.80;99.90
16477;DHT22;8349;50.928;6.376;2022-10-16T12:57:57;32.60;99.90
16477;DHT22;8349;50.928;6.376;2022-10-16T13:00:28;33.40;99.90
16477;DHT22;8349;50.928;6.376;2022-10-16T13:03:19;34.30;99.90
16477;DHT22;8349;50.928;6.376;2022-10-16T13:05:52;34.10;99.90
16477;DHT22;8349;50.928;6.376;2022-10-16T13:08:25;32.40;99.90
16477;DHT22;8349;50.928;6.376;2022-10-16T13:10:57;32.00;99.90
16477;DHT22;8349;50.928;6.376;2022-10-16T13:13:35;32.70;99.90
16477;DHT22;8349;50.928;6.376;2022-10-16T13:16:08;33.60;99.90
16477;DHT22;8349;50.928;6.376;2022-10-16T13:18:41;33.90;99.90
16477;DHT22;8349;50.928;6.376;2022-10-16T13:21:14;34.30;99.90
16477;DHT22;8349;50.928;6.376;2022-10-16T13:23:46;34.20;99.90
16477;DHT22;8349;50.928;6.376;2022-10-16T13:26:17;34.30;99.90
16477;DHT22;8349;50.928;6.376;2022-10-16T13:28:46;33.20;99.90
16477;DHT22;8349;50.928;6.376;2022-10-16T13:31:15;31.80;99.90
16477;DHT22;8349;50.928;6.376;2022-10-16T13:33:45;28.50;99.90
16477;DHT22;8349;50.928;6.376;2022-10-16T13:36:20;27.20;99.90
16477;DHT22;8349;50.928;6.376;2022-10-16T13:38:48;26.50;99.90
16477;DHT22;8349;50.928;6.376;2022-10-16T13:41:16;26.10;99.90
16477;DHT22;8349;50.928;6.376;2022-10-16T13:43:44;25.90;99.90
16477;DHT22;8349;50.928;6.376;2022-10-16T13:46:12;25.70;99.90
16477;DHT22;8349;50.928;6.376;2022-10-16T13:48:41;25.60;99.90
16477;DHT22;8349;50.928;6.376;2022-10-16T13:51:11;25.40;99.90
16477;DHT22;8349;50.928;6.376;2022-10-16T13:53:38;25.20;99.90
16477;DHT22;8349;50.928;6.376;2022-10-16T13:56:06;25.00;99.90
16477;DHT22;8349;50.928;6.376;2022-10-16T13:58:33;25.00;99.90
16477;DHT22;8349;50.928;6.376;2022-10-16T14:01:01;24.90;99.90
16477;DHT22;8349;50.928;6.376;2022-10-16T14:03:28;24.70;99.90
16477;DHT22;8349;50.928;6.376;2022-10-16T14:05:57;24.40;99.90
16477;DHT22;8349;50.928;6.376;2022-10-16T14:08:25;24.10;99.90
16477;DHT22;8349;50.928;6.376;2022-10-16T14:10:53;23.90;99.90
16477;DHT22;8349;50.928;6.376;2022-10-16T14:13:22;23.60;99.90
16477;DHT22;8349;50.928;6.376;2022-10-16T14:15:50;23.30;99.90
16477;DHT22;8349;50.928;6.376;2022-10-16T14:18:20;23.10;99.90
16477;DHT22;8349;50.928;6.376;2022-10-16T14:20:47;22.80;99.90
16477;DHT22;8349;50.928;6.376;2022-10-16T14:23:21;22.60;99.90
16477;DHT22;8349;50.928;6.376;2022-10-16T14:25:48;22.40;99.90
16477;DHT22;8349;50.928;6.376;2022-10-16T14:28:15;22.30;99.90
16477;DHT22;8349;50.928;6.376;2022-10-16T14:30:49;22.20;99.90
16477;DHT22;8349;50.928;6.376;2022-10-16T14:33:23;22.10;99.90
16477;DHT22;8349;50.928;6.376;2022-10-16T14:36:00;22.10;99.90
16477;DHT22;8349;50.928;6.376;2022-10-16T14:38:29;22.00;99.90
16477;DHT22;8349;50.928;6.376;2022-10-16T14:40:56;21.90;99.90
16477;DHT22;8349;50.928;6.376;2022-10-16T14:43:26;21.80;99.90
16477;DHT22;8349;50.928;6.376;2022-10-16T14:45:56;21.70;99.90
16477;DHT22;8349;50.928;6.376;2022-10-16T14:48:23;21.70;99.90
16477;DHT22;8349;50.928;6.376;2022-10-16T14:50:50;21.60;99.90
16477;DHT22;8349;50.928;6.376;2022-10-16T14:53:17;21.50;99.90
16477;DHT22;8349;50.928;6.376;2022-10-16T14:55:45;21.50;99.90
16477;DHT22;8349;50.928;6.376;2022-10-16T14:58:13;21.50;99.90
16477;DHT22;8349;50.928;6.376;2022-10-16T15:00:41;21.50;99.90
16477;DHT22;8349;50.928;6.376;2022-10-16T15:03:08;21.50;99.90
16477;DHT22;8349;50.928;6.376;2022-10-16T15:05:35;21.50;99.90
16477;DHT22;8349;50.928;6.376;2022-10-16T15:08:02;21.40;99.90
16477;DHT22;8349;50.928;6.376;2022-10-16T15:10:29;21.40;99.90
16477;DHT22;8349;50.928;6.376;2022-10-16T15:12:59;21.30;99.90
16477;DHT22;8349;50.928;6.376;2022-10-16T15:15:33;21.20;99.90
16477;DHT22;8349;50.928;6.376;2022-10-16T15:18:01;21.10;99.90
16477;DHT22;8349;50.928;6.376;2022-10-16T15:20:28;21.00;99.90
16477;DHT22;8349;50.928;6.376;2022-10-16T15:22:55;20.80;99.90
16477;DHT22;8349;50.928;6.376;2022-10-16T15:25:27;20.70;99.90
16477;DHT22;8349;50.928;6.376;2022-10-16T15:27:55;20.50;99.90
16477;DHT22;8349;50.928;6.376;2022-10-16T15:30:23;20.40;99.90
16477;DHT22;8349;50.928;6.376;2022-10-16T15:32:50;20.30;99.90
16477;DHT22;8349;50.928;6.376;2022-10-16T15:35:17;20.30;99.90
16477;DHT22;8349;50.928;6.376;2022-10-16T15:37:44;20.20;99.90
16477;DHT22;8349;50.928;6.376;2022-10-16T15:40:10;20.20;99.90
16477;DHT22;8349;50.928;6.376;2022-10-16T15:42:37;20.20;99.90
16477;DHT22;8349;50.928;6.376;2022-10-16T15:45:05;20.20;99.90
16477;DHT22;8349;50.928;6.376;2022-10-16T15:47:33;20.20;99.90
16477;DHT22;8349;50.928;6.376;2022-10-16T15:50:00;20.00;99.90
16477;DHT22;8349;50.928;6.376;2022-10-16T15:52:27;19.90;99.90
16477;DHT22;8349;50.928;6.376;2022-10-16T15:54:53;19.80;99.90
16477;DHT22;8349;50.928;6.376;2022-10-16T15:57:21;19.70;99.90
16477;DHT22;8349;50.928;6.376;2022-10-16T15:59:48;19.60;99.90
16477;DHT22;8349;50.928;6.376;2022-10-16T16:02:14;19.50;99.90
16477;DHT22;8349;50.928;6.376;2022-10-16T16:04:43;19.50;99.90
16477;DHT22;8349;50.928;6.376;2022-10-16T16:07:09;19.40;99.90
16477;DHT22;8349;50.928;6.376;2022-10-16T16:09:36;19.30;99.90
16477;DHT22;8349;50.928;6.376;2022-10-16T16:12:03;19.20;99.90
16477;DHT22;8349;50.928;6.376;2022-10-16T16:14:30;19.20;99.90
16477;DHT22;8349;50.928;6.376;2022-10-16T16:16:57;19.10;99.90
16477;DHT22;8349;50.928;6.376;2022-10-16T16:19:24;19.00;99.90
16477;DHT22;8349;50.928;6.376;2022-10-16T16:21:52;18.90;99.90
16477;DHT22;8349;50.928;6.376;2022-10-16T16:24:19;18.90;99.90
16477;DHT22;8349;50.928;6.376;2022-10-16T16:26:45;18.80;99.90
16477;DHT22;8349;50.928;6.376;2022-10-16T16:29:13;18.70;99.90
16477;DHT22;8349;50.928;6.376;2022-10-16T16:31:40;18.60;99.90
16477;DHT22;8349;50.928;6.376;2022-10-16T16:34:08;18.60;99.90
16477;DHT22;8349;50.928;6.376;2022-10-16T16:36:35;18.50;99.90
16477;DHT22;8349;50.928;6.376;2022-10-16T16:39:03;18.40;99.90
16477;DHT22;8349;50.928;6.376;2022-10-16T16:41:30;18.40;99.90
16477;DHT22;8349;50.928;6.376;2022-10-16T16:44:01;18.30;99.90
16477;DHT22;8349;50.928;6.376;2022-10-16T16:46:28;18.30;99.90
16477;DHT22;8349;50.928;6.376;2022-10-16T16:48:55;18.20;99.90
16477;DHT22;8349;50.928;6.376;2022-10-16T16:51:23;18.10;99.90
16477;DHT22;8349;50.928;6.376;2022-10-16T16:53:51;18.10;99.90
16477;DHT22;8349;50.928;6.376;2022-10-16T16:56:20;18.10;99.90
16477;DHT22;8349;50.928;6.376;2022-10-16T16:58:47;18.00;99.90
16477;DHT22;8349;50.928;6.376;2022-10-16T17:01:14;18.00;99.90
16477;DHT22;8349;50.928;6.376;2022-10-16T17:03:41;17.90;99.90
16477;DHT22;8349;50.928;6.376;2022-10-16T17:06:10;17.90;99.90
16477;DHT22;8349;50.928;6.376;2022-10-16T17:08:37;17.80;99.90
16477;DHT22;8349;50.928;6.376;2022-10-16T17:11:03;17.80;99.90
16477;DHT22;8349;50.928;6.376;2022-10-16T17:13:33;17.80;99.90
16477;DHT22;8349;50.928;6.376;2022-10-16T17:16:01;17.70;99.90
16477;DHT22;8349;50.928;6.376;2022-10-16T17:18:28;17.70;99.90
16477;DHT22;8349;50.928;6.376;2022-10-16T17:20:54;17.70;99.90
16477;DHT22;8349;50.928;6.376;2022-10-16T17:23:21;17.70;99.90
16477;DHT22;8349;50.928;6.376;2022-10-16T17:25:47;17.60;99.90
16477;DHT22;8349;50.928;6.376;2022-10-16T17:28:14;17.60;99.90
16477;DHT22;8349;50.928;6.376;2022-10-16T17:30:42;17.70;99.90
16477;DHT22;8349;50.928;6.376;2022-10-16T17:33:10;17.60;99.90
16477;DHT22;8349;50.928;6.376;2022-10-16T17:35:38;17.60;99.90
16477;DHT22;8349;50.928;6.376;2022-10-16T17:38:05;17.60;99.90
16477;DHT22;8349;50.928;6.376;2022-10-16T17:40:32;17.60;99.90
16477;DHT22;8349;50.928;6.376;2022-10-16T17:42:59;17.60;99.90
16477;DHT22;8349;50.928;6.376;2022-10-16T17:45:25;17.60;99.90
16477;DHT22;8349;50.928;6.376;2022-10-16T17:47:54;17.60;99.90
16477;DHT22;8349;50.928;6.376;2022-10-16T17:50:20;17.50;99.90
16477;DHT22;8349;50.928;6.376;2022-10-16T17:52:47;17.50;99.90
16477;DHT22;8349;50.928;6.376;2022-10-16T17:55:14;17.50;99.90
16477;DHT22;8349;50.928;6.376;2022-10-16T17:57:41;17.50;99.90
16477;DHT22;8349;50.928;6.376;2022-10-16T18:00:08;17.60;99.90
16477;DHT22;8349;50.928;6.376;2022-10-16T18:02:35;17.60;99.90
16477;DHT22;8349;50.928;6.376;2022-10-16T18:05:03;17.60;99.90
16477;DHT22;8349;50.928;6.376;2022-10-16T18:07:30;17.50;99.90
16477;DHT22;8349;50.928;6.376;2022-10-16T18:09:57;17.50;99.90
16477;DHT22;8349;50.928;6.376;2022-10-16T18:12:24;17.50;99.90
16477;DHT22;8349;50.928;6.376;2022-10-16T18:14:50;17.50;99.90
16477;DHT22;8349;50.928;6.376;2022-10-16T18:17:20;17.60;99.90
16477;DHT22;8349;50.928;6.376;2022-10-16T18:19:46;17.60;99.90
16477;DHT22;8349;50.928;6.376;2022-10-16T18:22:15;17.60;99.90
16477;DHT22;8349;50.928;6.376;2022-10-16T18:24:42;17.60;99.90
16477;DHT22;8349;50.928;6.376;2022-10-16T18:27:08;17.60;99.90
16477;DHT22;8349;50.928;6.376;2022-10-16T18:29:35;17.60;99.90
16477;DHT22;8349;50.928;6.376;2022-10-16T18:32:03;17.60;99.90
16477;DHT22;8349;50.928;6.376;2022-10-16T18:34:30;17.60;99.90
16477;DHT22;8349;50.928;6.376;2022-10-16T18:36:57;17.60;99.90
16477;DHT22;8349;50.928;6.376;2022-10-16T18:39:25;17.60;99.90
16477;DHT22;8349;50.928;6.376;2022-10-16T18:41:52;17.50;99.90
16477;DHT22;8349;50.928;6.376;2022-10-16T18:44:24;17.50;99.90
16477;DHT22;8349;50.928;6.376;2022-10-16T18:46:51;17.60;99.90
16477;DHT22;8349;50.928;6.376;2022-10-16T18:49:21;17.50;99.90
16477;DHT22;8349;50.928;6.376;2022-10-16T18:51:48;17.50;99.90
16477;DHT22;8349;50.928;6.376;2022-10-16T18:54:20;17.50;99.90
16477;DHT22;8349;50.928;6.376;2022-10-16T18:56:49;17.40;99.90
16477;DHT22;8349;50.928;6.376;2022-10-16T18:59:16;17.50;99.90
16477;DHT22;8349;50.928;6.376;2022-10-16T19:01:43;17.50;99.90